Barstow, Texas
Current Conditions -  °F | °C
As of 5:15 PM on Tuesday 25 Nov 2014 (Local Time) from KPEQ Reporting Station
Clear Clear  
Wind Chill: 58°   Ceiling: Unl
Heat Index: 58°   Visibility: 10mi
Dew Point: 13°   Wind: 9mph
Humidity: 17%   Direction: 250°WSW
Pressure: 30.19"   Gusts: NA
Location:  31.46°N, 103.39°W
Report Text: KPEQ 252315Z AUTO 25008KT 10SM CLR 15/M11 A3019 RMK AO2 T01461106
Loading
Personal Weather Stations






























Interactive Weather Map New forecast layout! Learn more

10-Day Weather Forecast

Advertisements
Track Severe Weather on mobile